Time;durP1;ratioP1;P1;durP2;ratioP2;P2;SDS_P1;SDS_P2;PMS_P1;PMS_P2;Temp;Humidity;BMP_temperature;BMP_pressure;BME280_temperature;BME280_humidity;BME280_pressure;Samples;Min_cycle;Max_cycle;Signal;HPM_P1;HPM_P2
2022/03/05 00:01:17;;;;;;;27.83;11.30;;;;;;;-145.18;100.00;47170.25;4894824;29;20127;-61
2022/03/05 00:03:43;;;;;;;29.83;11.00;;;;;;;-145.18;100.00;47072.56;4912061;29;20048;-61
2022/03/05 00:06:08;;;;;;;26.63;11.13;;;;;;;-145.18;100.00;46967.09;4894790;29;20090;-61
2022/03/05 00:08:34;;;;;;;28.88;12.35;;;;;;;-145.18;100.00;46951.44;4912129;29;20060;-61
2022/03/05 00:11:00;;;;;;;31.77;12.10;;;;;;;-145.18;100.00;46926.06;4912676;29;20079;-61
2022/03/05 00:13:26;;;;;;;33.53;12.23;;;;;;;-145.18;100.00;46898.72;4911381;29;20128;-61
2022/03/05 00:15:52;;;;;;;29.17;12.23;;;;;;;-145.18;100.00;46863.53;4895265;29;20044;-61
2022/03/05 00:18:17;;;;;;;28.93;11.97;;;;;;;-145.18;100.00;46810.81;4911636;29;20063;-61
2022/03/05 00:20:44;;;;;;;29.63;12.27;;;;;;;-145.18;100.00;46826.44;4911727;29;20510;-61
2022/03/05 00:23:10;;;;;;;33.25;13.30;;;;;;;-145.18;100.00;46763.91;4911678;29;20519;-61
2022/03/05 00:25:36;;;;;;;30.87;12.30;;;;;;;-145.18;100.00;46758.06;4912546;29;20049;-61
2022/03/05 00:28:02;;;;;;;34.15;14.48;;;;;;;-145.18;100.00;46720.94;4894736;29;20541;-61
2022/03/05 00:30:27;;;;;;;36.10;15.60;;;;;;;-145.18;100.00;46662.34;4910827;29;20075;-61
2022/03/05 00:32:53;;;;;;;32.57;13.53;;;;;;;-145.18;100.00;46656.50;4911408;29;20075;-61
2022/03/05 00:35:18;;;;;;;28.80;12.80;;;;;;;-145.18;100.00;46654.53;4911606;29;20108;-61
2022/03/05 00:37:44;;;;;;;35.80;14.43;;;;;;;-145.18;100.00;46664.31;4910825;29;20180;-61
2022/03/05 00:40:11;;;;;;;35.80;14.87;;;;;;;-145.18;100.00;46636.94;4895624;29;20051;-61
2022/03/05 00:42:36;;;;;;;37.25;15.02;;;;;;;-145.18;100.00;46644.78;4910886;29;20047;-61
2022/03/05 00:45:02;;;;;;;39.53;15.93;;;;;;;-145.18;100.00;46629.13;4911412;29;20048;-60
2022/03/05 00:47:28;;;;;;;38.15;14.60;;;;;;;-145.18;100.00;46627.19;4910671;29;20043;-61
2022/03/05 00:49:53;;;;;;;40.53;15.10;;;;;;;-145.18;100.00;46619.38;4894657;29;20036;-61
2022/03/05 00:52:20;;;;;;;42.40;16.27;;;;;;;-145.18;100.00;46627.19;4911128;29;20058;-61
2022/03/05 00:54:45;;;;;;;38.95;16.20;;;;;;;-145.18;100.00;46642.81;4911490;29;20143;-61
2022/03/05 00:57:10;;;;;;;43.27;17.23;;;;;;;-145.18;100.00;46656.50;4911867;29;20118;-61
2022/03/05 00:59:36;;;;;;;40.67;15.80;;;;;;;-145.18;100.00;46656.50;4911209;29;20534;-61
2022/03/05 01:02:01;;;;;;;43.93;18.77;;;;;;;-145.18;100.00;46642.81;4910689;29;20059;-61
2022/03/05 01:04:27;;;;;;;44.00;17.97;;;;;;;-145.18;100.00;46640.88;4911173;29;20044;-61
2022/03/05 01:06:52;;;;;;;48.70;17.40;;;;;;;-145.18;100.00;46636.94;4894049;29;20054;-61
2022/03/05 01:09:17;;;;;;;44.43;18.63;;;;;;;-145.18;100.00;46633.06;4912228;29;20135;-61
2022/03/05 01:11:43;;;;;;;48.43;18.40;;;;;;;-145.18;100.00;46636.94;4893343;29;20048;-61
2022/03/05 01:14:08;;;;;;;49.00;19.03;;;;;;;-145.18;100.00;46633.06;4911413;29;20092;-61
2022/03/05 01:16:34;;;;;;;46.10;18.23;;;;;;;-145.18;100.00;46631.09;4902912;29;20040;-60
2022/03/05 01:19:00;;;;;;;49.22;20.05;;;;;;;-145.18;100.00;46625.22;4911319;29;20119;-61
2022/03/05 01:21:27;;;;;;;51.58;19.27;;;;;;;-145.18;100.00;46627.19;4910453;29;20535;-61
2022/03/05 01:23:53;;;;;;;45.78;19.10;;;;;;;-145.18;100.00;46617.41;4912136;29;20041;-61
2022/03/05 01:26:18;;;;;;;44.85;18.85;;;;;;;-145.18;100.00;46619.38;4911290;29;20040;-61
2022/03/05 01:28:44;;;;;;;44.93;18.93;;;;;;;-145.18;100.00;46621.31;4893658;29;20048;-61
2022/03/05 01:31:09;;;;;;;48.23;19.33;;;;;;;-145.18;100.00;46617.41;4911156;29;20036;-61
2022/03/05 01:33:34;;;;;;;48.93;18.53;;;;;;;-145.18;100.00;46615.47;4910690;29;20040;-61
2022/03/05 01:36:00;;;;;;;53.27;20.07;;;;;;;-145.18;100.00;46621.31;4910810;29;20045;-61
2022/03/05 01:38:25;;;;;;;56.13;18.73;;;;;;;-145.18;100.00;46615.47;4911220;29;20083;-61
2022/03/05 01:40:51;;;;;;;49.90;18.80;;;;;;;-145.18;100.00;46619.38;4910936;29;20498;-61
2022/03/05 01:43:17;;;;;;;50.85;19.27;;;;;;;-145.18;100.00;46617.41;4914110;29;20052;-61
2022/03/05 01:45:42;;;;;;;48.10;18.77;;;;;;;-145.18;100.00;46623.28;4914482;29;20044;-61
2022/03/05 01:48:08;;;;;;;51.27;18.27;;;;;;;-145.18;100.00;46617.41;4914479;29;20489;-61
2022/03/05 01:50:34;;;;;;;50.30;19.83;;;;;;;-145.18;100.00;46617.41;4914505;29;20526;-61
2022/03/05 01:53:00;;;;;;;52.47;19.77;;;;;;;-145.18;100.00;46623.28;4914528;29;20044;-61
2022/03/05 01:55:25;;;;;;;49.37;19.70;;;;;;;-145.18;100.00;46623.28;4914460;29;20417;-60
2022/03/05 01:57:51;;;;;;;55.20;19.73;;;;;;;-145.18;100.00;46621.31;4914176;29;20127;-61
2022/03/05 02:00:17;;;;;;;49.23;18.33;;;;;;;-145.18;100.00;46619.38;4914724;29;20052;-61
2022/03/05 02:02:43;;;;;;;47.13;18.38;;;;;;;-145.18;100.00;46613.50;4913670;29;20040;-61
2022/03/05 02:05:10;;;;;;;49.28;19.42;;;;;;;-145.18;100.00;46625.22;4914311;29;20047;-61
2022/03/05 02:07:36;;;;;;;43.55;18.33;;;;;;;-145.18;100.00;46617.41;4914348;29;20032;-61
2022/03/05 02:10:03;;;;;;;52.13;18.97;;;;;;;-145.18;100.00;46623.28;4914417;29;20100;-61
2022/03/05 02:12:32;;;;;;;47.28;18.95;;;;;;;-145.18;100.00;46627.19;4913751;29;20114;-61
2022/03/05 02:15:01;;;;;;;46.97;18.52;;;;;;;-145.18;100.00;46627.19;4914172;29;20501;-61
2022/03/05 02:17:28;;;;;;;46.08;18.27;;;;;;;-145.18;100.00;46623.28;4913575;29;20059;-61
2022/03/05 02:19:54;;;;;;;49.55;19.75;;;;;;;-145.18;100.00;46617.41;4913978;29;20047;-61
2022/03/05 02:22:20;;;;;;;53.05;20.13;;;;;;;-145.18;100.00;46619.38;4896646;29;20464;-61
2022/03/05 02:24:49;;;;;;;49.93;19.67;;;;;;;-145.18;100.00;46611.56;4913777;29;20059;-61
2022/03/05 02:27:15;;;;;;;48.22;18.23;;;;;;;-145.18;100.00;46619.38;4913667;29;20047;-61
2022/03/05 02:29:40;;;;;;;46.27;17.83;;;;;;;-145.18;100.00;46613.50;4914251;29;20051;-61
2022/03/05 02:32:06;;;;;;;46.03;19.30;;;;;;;-145.18;100.00;46619.38;4913573;29;20583;-61
2022/03/05 02:34:32;;;;;;;54.10;19.23;;;;;;;-145.18;100.00;46613.50;4913540;29;20508;-61
2022/03/05 02:36:57;;;;;;;50.77;20.67;;;;;;;-145.18;100.00;46611.56;4913682;29;20052;-61
2022/03/05 02:39:26;;;;;;;47.63;19.23;;;;;;;-145.18;100.00;46615.47;4913512;29;20088;-61
2022/03/05 02:41:52;;;;;;;54.35;19.13;;;;;;;-145.18;100.00;46617.41;4896395;29;20036;-61
2022/03/05 02:44:19;;;;;;;50.45;19.00;;;;;;;-145.18;100.00;46611.56;4913701;29;20044;-61
2022/03/05 02:46:44;;;;;;;47.70;19.83;;;;;;;-145.18;100.00;46613.50;4913822;29;20115;-60
2022/03/05 02:49:10;;;;;;;52.07;19.37;;;;;;;-145.18;100.00;46613.50;4913801;29;20127;-61
2022/03/05 02:51:35;;;;;;;47.37;19.80;;;;;;;-145.18;100.00;46609.59;4913234;29;20048;-61
2022/03/05 02:54:00;;;;;;;49.23;19.60;;;;;;;-145.18;100.00;46613.50;4912283;29;20135;-61
2022/03/05 02:56:26;;;;;;;54.80;18.60;;;;;;;-145.18;100.00;46613.50;4913283;29;20052;-61
2022/03/05 02:58:52;;;;;;;46.87;18.47;;;;;;;-145.18;100.00;46617.41;4913203;29;20043;-61
2022/03/05 03:03:52;;;;;;;47.08;18.25;;;;;;;-145.18;100.00;46619.38;4833935;23;20106;-61
2022/03/05 03:06:18;;;;;;;47.00;18.20;;;;;;;-145.18;100.00;46613.50;4971185;28;20043;-61
2022/03/05 03:08:43;;;;;;;51.67;19.47;;;;;;;-145.18;100.00;46611.56;4970527;28;20039;-61
2022/03/05 03:11:10;;;;;;;47.20;19.70;;;;;;;-145.18;100.00;46613.50;4970593;28;20035;-61
2022/03/05 03:13:37;;;;;;;47.50;18.00;;;;;;;-145.18;100.00;46611.56;4970374;28;20491;-61
2022/03/05 03:16:03;;;;;;;51.55;18.13;;;;;;;-145.18;100.00;46611.56;4971065;28;20039;-61
2022/03/05 03:18:28;;;;;;;53.30;20.73;;;;;;;-145.18;100.00;46613.50;4970493;28;20045;-61
2022/03/05 03:20:54;;;;;;;48.10;19.37;;;;;;;-145.18;100.00;46611.56;4970245;28;20273;-61
2022/03/05 03:23:19;;;;;;;52.60;19.83;;;;;;;-145.18;100.00;46615.47;4970265;28;20039;-61
2022/03/05 03:25:44;;;;;;;48.50;20.73;;;;;;;-145.18;100.00;46613.50;4970673;28;20059;-61
2022/03/05 03:28:10;;;;;;;55.47;20.20;;;;;;;-145.18;100.00;46611.56;4969894;28;20039;-61
2022/03/05 03:30:35;;;;;;;57.40;20.37;;;;;;;-145.18;100.00;46617.41;4971152;28;20089;-61
2022/03/05 03:33:01;;;;;;;52.90;19.70;;;;;;;-145.18;100.00;46621.31;4969721;28;20041;-61
2022/03/05 03:35:27;;;;;;;47.70;18.67;;;;;;;-145.18;100.00;46613.50;4970128;28;20085;-61
2022/03/05 03:37:53;;;;;;;50.40;20.33;;;;;;;-145.18;100.00;46615.47;4969880;28;20035;-61
2022/03/05 03:40:19;;;;;;;55.97;20.58;;;;;;;-145.18;100.00;46611.56;4970221;28;20277;-61
2022/03/05 03:42:48;;;;;;;55.03;19.30;;;;;;;-145.18;100.00;46613.50;4969721;28;20089;-61
2022/03/05 03:45:14;;;;;;;48.88;20.67;;;;;;;-145.18;100.00;46619.38;4970728;28;20288;-61
2022/03/05 03:47:42;;;;;;;52.25;21.33;;;;;;;-145.18;100.00;46625.22;4969561;28;20049;-61
2022/03/05 03:50:08;;;;;;;64.35;21.35;;;;;;;-145.18;100.00;46625.22;4969931;28;20101;-61
2022/03/05 03:52:34;;;;;;;53.50;20.25;;;;;;;-145.18;100.00;46627.19;4969580;28;20049;-60
2022/03/05 03:55:00;;;;;;;56.27;19.77;;;;;;;-145.18;100.00;46629.13;4969652;28;20038;-61
2022/03/05 03:57:25;;;;;;;58.50;21.30;;;;;;;-145.18;100.00;46629.13;4969441;28;20041;-60
2022/03/05 03:59:52;;;;;;;51.23;20.50;;;;;;;-145.18;100.00;46633.06;4952675;28;20046;-61
2022/03/05 04:02:21;;;;;;;58.03;20.60;;;;;;;-145.18;100.00;46633.06;4957895;28;20409;-61
2022/03/05 04:04:47;;;;;;;58.10;21.17;;;;;;;-145.18;100.00;46636.94;4950745;28;20043;-61
2022/03/05 04:09:56;;;;;;;56.70;20.27;;;;;;;-145.18;100.00;46656.50;4950377;28;20097;-61
2022/03/05 04:12:22;;;;;;;51.73;20.20;;;;;;;-145.18;100.00;46658.44;4950027;28;20047;-61
2022/03/05 04:14:48;;;;;;;52.83;19.15;;;;;;;-145.18;100.00;46656.50;4950389;28;20074;-61
2022/03/05 04:17:14;;;;;;;53.30;20.63;;;;;;;-145.18;100.00;46660.41;4932320;28;20181;-61
2022/03/05 04:19:39;;;;;;;58.20;21.40;;;;;;;-145.18;100.00;46660.41;4950032;28;20031;-61
2022/03/05 04:22:05;;;;;;;49.57;20.23;;;;;;;-145.18;100.00;46660.41;4950109;28;20039;-61
2022/03/05 04:24:31;;;;;;;61.55;21.63;;;;;;;-145.18;100.00;46660.41;4933449;28;20411;-61
2022/03/05 04:26:56;;;;;;;54.53;19.47;;;;;;;-145.18;100.00;46642.81;4949584;28;20051;-61
2022/03/05 04:29:22;;;;;;;53.60;21.10;;;;;;;-145.18;100.00;46660.41;4950019;28;20043;-61
2022/03/05 04:31:47;;;;;;;65.20;20.97;;;;;;;-145.18;100.00;46644.78;4950035;28;20049;-61
2022/03/05 04:34:13;;;;;;;61.33;20.43;;;;;;;-145.18;100.00;46648.69;4949432;28;20039;-61
2022/03/05 04:36:38;;;;;;;62.07;21.80;;;;;;;-145.18;100.00;46648.69;4950777;28;20039;-61
2022/03/05 04:39:03;;;;;;;59.90;20.97;;;;;;;-145.18;100.00;46654.53;4949333;28;20575;-61
2022/03/05 04:41:29;;;;;;;52.00;20.57;;;;;;;-145.18;100.00;46652.59;4949436;28;20048;-61
2022/03/05 04:43:54;;;;;;;68.27;22.67;;;;;;;-145.18;100.00;46648.69;4949298;28;20062;-61
2022/03/05 04:46:19;;;;;;;64.97;23.00;;;;;;;-145.18;100.00;46656.50;4949820;28;20081;-61
2022/03/05 04:48:45;;;;;;;60.27;21.67;;;;;;;-145.18;100.00;46660.41;4949623;28;20035;-61
2022/03/05 04:51:10;;;;;;;52.40;21.23;;;;;;;-145.18;100.00;46664.31;4950338;28;20471;-61
2022/03/05 04:53:35;;;;;;;60.10;22.40;;;;;;;-145.18;100.00;46664.31;4949040;28;20055;-61
2022/03/05 04:56:01;;;;;;;58.87;20.67;;;;;;;-145.18;100.00;46668.22;4949514;28;20055;-61
2022/03/05 04:58:26;;;;;;;56.33;21.00;;;;;;;-145.18;100.00;46668.22;4949265;28;20051;-61
2022/03/05 05:00:51;;;;;;;62.17;21.73;;;;;;;-145.18;100.00;46670.16;4949547;28;20042;-61
2022/03/05 05:03:17;;;;;;;66.77;22.43;;;;;;;-145.18;100.00;46666.25;4940476;28;20047;-61
2022/03/05 05:05:42;;;;;;;61.07;23.40;;;;;;;-145.18;100.00;46666.25;4950165;28;20043;-61
2022/03/05 05:08:08;;;;;;;66.37;23.20;;;;;;;-145.18;100.00;46670.16;4948921;28;20118;-61
2022/03/05 05:10:33;;;;;;;60.47;22.10;;;;;;;-145.18;100.00;46666.25;4949581;28;20047;-61
2022/03/05 05:12:59;;;;;;;60.07;21.77;;;;;;;-145.18;100.00;46672.13;4931863;28;20055;-61
2022/03/05 05:15:24;;;;;;;66.13;23.47;;;;;;;-145.18;100.00;46672.13;4949265;28;20110;-61
2022/03/05 05:17:50;;;;;;;65.90;21.07;;;;;;;-145.18;100.00;46676.03;4948695;28;20122;-61
2022/03/05 05:20:15;;;;;;;72.47;22.63;;;;;;;-145.18;100.00;46677.97;4949729;28;20042;-61
2022/03/05 05:22:40;;;;;;;64.03;22.10;;;;;;;-145.18;100.00;46677.97;4949201;28;20039;-61
2022/03/05 05:25:07;;;;;;;68.47;22.27;;;;;;;-145.18;100.00;46676.03;4949065;28;20039;-61
2022/03/05 05:27:39;;;;;;;62.92;22.38;;;;;;;-145.18;100.00;46676.03;4947600;28;20051;-61
2022/03/05 05:30:07;;;;;;;64.72;20.55;;;;;;;-145.18;100.00;46679.94;4948992;28;20568;-60
2022/03/05 05:32:32;;;;;;;69.45;23.20;;;;;;;-145.18;100.00;46681.88;4949140;28;20074;-60
2022/03/05 05:34:58;;;;;;;64.47;22.77;;;;;;;-145.18;100.00;46681.88;4949244;28;20031;-61
2022/03/05 05:37:23;;;;;;;61.87;21.70;;;;;;;-145.18;100.00;46681.88;4949575;28;20039;-61
2022/03/05 05:39:49;;;;;;;74.13;25.70;;;;;;;-145.18;100.00;46681.88;4948137;28;20403;-60
2022/03/05 05:42:14;;;;;;;57.63;21.03;;;;;;;-145.18;100.00;46685.78;4948859;28;20106;-61
2022/03/05 05:44:40;;;;;;;71.70;23.60;;;;;;;-145.18;100.00;46685.78;4949212;28;20407;-61
2022/03/05 05:47:05;;;;;;;67.03;21.90;;;;;;;-145.18;100.00;46685.78;4949222;28;20139;-61
2022/03/05 05:49:31;;;;;;;74.67;25.33;;;;;;;-145.18;100.00;46687.75;4948855;28;20073;-61
2022/03/05 05:51:56;;;;;;;72.27;24.63;;;;;;;-145.18;100.00;46687.75;4949677;28;20043;-61
2022/03/05 05:54:23;;;;;;;68.40;24.73;;;;;;;-145.18;100.00;46687.75;4931201;28;20134;-60
2022/03/05 05:56:49;;;;;;;63.28;23.30;;;;;;;-145.18;100.00;46695.56;4949128;28;20039;-60
2022/03/05 05:59:15;;;;;;;71.63;24.83;;;;;;;-145.18;100.00;46687.75;4948743;28;20051;-61
2022/03/05 06:01:41;;;;;;;66.60;24.67;;;;;;;-145.18;100.00;46685.78;4948793;28;20316;-61
2022/03/05 06:04:07;;;;;;;70.77;25.37;;;;;;;-145.18;100.00;46687.75;4948550;28;20050;-61
2022/03/05 06:06:32;;;;;;;74.47;26.00;;;;;;;-145.18;100.00;46697.50;4949126;28;20407;-61
2022/03/05 06:08:57;;;;;;;71.43;23.20;;;;;;;-145.18;100.00;46687.75;4949275;28;20047;-61
2022/03/05 06:11:23;;;;;;;71.87;25.03;;;;;;;-145.18;100.00;46691.66;4915717;28;20055;-61
2022/03/05 06:13:48;;;;;;;69.20;22.97;;;;;;;-145.18;100.00;46683.84;4948463;28;20047;-60
2022/03/05 06:16:13;;;;;;;69.37;26.10;;;;;;;-145.18;100.00;46683.84;4948960;28;20077;-61
2022/03/05 06:18:39;;;;;;;78.63;24.67;;;;;;;-145.18;100.00;46691.66;4948630;28;20045;-61
2022/03/05 06:21:05;;;;;;;72.93;23.40;;;;;;;-145.18;100.00;46695.56;4949459;28;20067;-61
2022/03/05 06:23:32;;;;;;;74.97;25.33;;;;;;;-145.18;100.00;46691.66;4948717;28;20126;-61
2022/03/05 06:25:57;;;;;;;73.22;24.15;;;;;;;-145.18;100.00;46685.78;4949058;28;20059;-61
2022/03/05 06:28:23;;;;;;;68.50;25.57;;;;;;;-145.18;100.00;46685.78;4949362;28;20046;-61
2022/03/05 06:30:48;;;;;;;74.83;24.43;;;;;;;-145.18;100.00;46689.69;4952286;28;20051;-61
2022/03/05 06:33:13;;;;;;;70.50;22.93;;;;;;;-145.18;100.00;46679.94;4951770;28;20055;-61
2022/03/05 06:35:39;;;;;;;74.43;24.10;;;;;;;-145.18;100.00;46681.88;4952908;28;20492;-61
2022/03/05 06:38:04;;;;;;;70.37;23.73;;;;;;;-145.18;100.00;46677.97;4951772;28;20078;-61
2022/03/05 06:40:30;;;;;;;75.27;25.97;;;;;;;-145.18;100.00;46674.06;4951986;28;20411;-60
2022/03/05 06:42:55;;;;;;;74.53;25.67;;;;;;;-145.18;100.00;46674.06;4951751;28;20043;-61
2022/03/05 06:45:21;;;;;;;68.57;24.83;;;;;;;-145.18;100.00;46674.06;4952085;28;20043;-61
2022/03/05 06:47:46;;;;;;;87.10;26.97;;;;;;;-145.18;100.00;46672.13;4951659;28;20106;-61
2022/03/05 06:50:12;;;;;;;75.40;25.80;;;;;;;-145.18;100.00;46660.41;4952172;28;20118;-61
2022/03/05 06:52:37;;;;;;;80.83;24.37;;;;;;;-145.18;100.00;46662.34;4951579;28;20035;-61
2022/03/05 06:55:04;;;;;;;78.57;25.50;;;;;;;-145.18;100.00;46658.44;4951599;28;20063;-60
2022/03/05 06:57:30;;;;;;;76.07;25.13;;;;;;;-145.18;100.00;46650.63;4951372;28;20415;-61
2022/03/05 06:59:55;;;;;;;78.43;25.17;;;;;;;-145.18;100.00;46646.72;4951879;28;20114;-61
2022/03/05 07:02:21;;;;;;;77.70;25.87;;;;;;;-145.18;100.00;46629.13;4951213;28;20511;-61
2022/03/05 07:04:47;;;;;;;65.70;22.93;;;;;;;-145.18;100.00;46611.56;4952149;28;20567;-61
2022/03/05 07:07:12;;;;;;;79.53;25.13;;;;;;;-145.18;100.00;46588.13;4951581;28;20054;-61
2022/03/05 07:09:38;;;;;;;75.07;25.17;;;;;;;-145.18;100.00;46566.63;4951374;28;20074;-61
2022/03/05 07:12:05;;;;;;;78.30;24.77;;;;;;;-145.18;100.00;46551.00;4951131;28;20039;-61
2022/03/05 07:14:30;;;;;;;80.93;27.20;;;;;;;-145.18;100.00;46543.19;4951190;28;20043;-60
2022/03/05 07:16:56;;;;;;;76.00;24.00;;;;;;;-145.18;100.00;46537.34;4951549;28;20460;-61
2022/03/05 07:19:22;;;;;;;73.80;22.97;;;;;;;-145.18;100.00;46537.34;4950722;28;20039;-61
2022/03/05 07:21:47;;;;;;;68.77;23.90;;;;;;;-145.18;100.00;46533.44;4951902;28;20126;-61
2022/03/05 07:24:13;;;;;;;72.53;24.47;;;;;;;-145.18;100.00;46533.44;4933632;28;20043;-61
2022/03/05 07:26:38;;;;;;;74.50;26.00;;;;;;;-145.18;100.00;46529.53;4951455;28;20047;-61
2022/03/05 07:29:04;;;;;;;71.80;23.93;;;;;;;-145.18;100.00;46525.63;4950786;28;20039;-61
2022/03/05 07:31:29;;;;;;;65.33;23.97;;;;;;;-145.18;100.00;46539.28;4951022;28;20811;-61
2022/03/05 07:33:55;;;;;;;74.47;25.10;;;;;;;-145.18;100.00;46537.34;4950886;28;20325;-61
2022/03/05 07:36:20;;;;;;;75.47;24.40;;;;;;;-145.18;100.00;46531.47;4951694;28;20046;-61
2022/03/05 07:38:46;;;;;;;81.87;25.37;;;;;;;-145.18;100.00;46543.19;4950592;28;20050;-61
2022/03/05 07:41:12;;;;;;;74.60;25.67;;;;;;;-145.18;100.00;46533.44;4950410;28;20035;-61
2022/03/05 07:43:38;;;;;;;69.53;23.77;;;;;;;-145.18;100.00;46547.09;4950853;28;20043;-61
2022/03/05 07:46:04;;;;;;;73.33;24.80;;;;;;;-145.18;100.00;46547.09;4950522;28;20043;-61
2022/03/05 07:48:30;;;;;;;66.93;23.43;;;;;;;-145.18;100.00;46547.09;4950849;28;20039;-61
2022/03/05 07:50:58;;;;;;;69.18;24.08;;;;;;;-145.18;100.00;46549.06;4951622;28;20455;-61
2022/03/05 07:53:24;;;;;;;60.13;23.45;;;;;;;-145.18;100.00;46556.88;4950269;28;20130;-61
2022/03/05 07:55:49;;;;;;;72.37;24.57;;;;;;;-145.18;100.00;46556.88;4950357;28;20452;-61
2022/03/05 07:58:15;;;;;;;74.43;24.37;;;;;;;-145.18;100.00;46556.88;4949878;28;20051;-61
2022/03/05 08:00:40;;;;;;;72.90;24.37;;;;;;;-145.18;100.00;46556.88;4950616;28;20539;-61
2022/03/05 08:03:05;;;;;;;69.70;24.70;;;;;;;-145.18;100.00;46558.81;4949365;28;20051;-61
2022/03/05 08:05:31;;;;;;;63.47;22.67;;;;;;;-145.18;100.00;46568.59;4950958;28;20133;-61
2022/03/05 08:07:56;;;;;;;65.90;23.37;;;;;;;-145.18;100.00;46570.53;4950038;28;20043;-61
2022/03/05 08:10:22;;;;;;;69.03;24.30;;;;;;;-145.18;100.00;46562.72;4933216;28;20519;-61
2022/03/05 08:12:47;;;;;;;67.67;21.63;;;;;;;-145.18;100.00;46572.50;4949996;28;20072;-61
2022/03/05 08:15:13;;;;;;;68.43;23.60;;;;;;;-145.18;100.00;46566.63;4950082;28;20050;-61
2022/03/05 08:17:56;;;;;;;67.90;24.30;;;;;;;-145.18;100.00;46584.22;4950924;28;20043;-62
2022/03/05 08:20:23;;;;;;;74.05;23.00;;;;;;;-145.18;100.00;46586.16;4950149;28;20043;-61
2022/03/05 08:22:49;;;;;;;72.75;24.75;;;;;;;-145.18;100.00;46590.06;4949928;28;20384;-61
2022/03/05 08:25:15;;;;;;;68.18;23.58;;;;;;;-145.18;100.00;46593.97;4949947;28;20412;-61
2022/03/05 08:27:40;;;;;;;66.37;25.10;;;;;;;-145.18;100.00;46597.88;4950234;28;20075;-61
2022/03/05 08:30:07;;;;;;;64.33;23.20;;;;;;;-145.18;100.00;46595.94;4949810;28;20050;-61
2022/03/05 08:32:32;;;;;;;68.47;25.10;;;;;;;-145.18;100.00;46588.13;4949876;28;20039;-62
2022/03/05 08:34:58;;;;;;;56.90;23.20;;;;;;;-145.18;100.00;46607.66;4950412;28;20039;-61
2022/03/05 08:37:23;;;;;;;71.50;23.57;;;;;;;-145.18;100.00;46593.97;4950120;28;20043;-61
2022/03/05 08:39:49;;;;;;;70.17;23.23;;;;;;;-145.18;100.00;46599.84;4949693;28;20043;-61
2022/03/05 08:42:14;;;;;;;61.83;24.57;;;;;;;-145.18;100.00;46601.78;4949487;28;20132;-61
2022/03/05 08:44:39;;;;;;;65.27;22.93;;;;;;;-145.18;100.00;46613.50;4949719;28;20039;-62
2022/03/05 08:47:05;;;;;;;67.80;24.60;;;;;;;-145.18;100.00;46623.28;4949944;28;20050;-62
2022/03/05 08:49:30;;;;;;;59.93;22.60;;;;;;;-145.18;100.00;46607.66;4949880;28;20503;-61
2022/03/05 08:51:56;;;;;;;65.13;23.97;;;;;;;-145.18;100.00;46605.69;4932072;28;20047;-62
2022/03/05 08:54:21;;;;;;;64.20;23.73;;;;;;;-145.18;100.00;46605.69;4948243;28;20046;-62
2022/03/05 08:56:47;;;;;;;61.40;22.43;;;;;;;-145.18;100.00;46607.66;4932660;28;20101;-62
2022/03/05 08:59:13;;;;;;;63.53;24.10;;;;;;;-145.18;100.00;46619.38;4949131;28;20039;-62
2022/03/05 09:01:39;;;;;;;64.70;24.07;;;;;;;-145.18;100.00;46640.88;4949425;28;20047;-62
2022/03/05 09:04:05;;;;;;;64.15;23.60;;;;;;;-145.18;100.00;46638.91;4949778;28;20039;-62
2022/03/05 09:06:31;;;;;;;67.15;25.00;;;;;;;-145.18;100.00;46646.72;4932523;28;20411;-62
2022/03/05 09:08:57;;;;;;;61.87;23.87;;;;;;;-145.18;100.00;46621.31;4948897;28;20054;-62
2022/03/05 09:11:22;;;;;;;64.60;24.80;;;;;;;-145.18;100.00;46635.00;4949420;28;20086;-61
2022/03/05 09:13:48;;;;;;;64.50;23.50;;;;;;;-145.18;100.00;46621.31;4948897;28;20265;-61
2022/03/05 09:16:13;;;;;;;66.93;23.30;;;;;;;-145.18;100.00;46623.28;4949170;28;20191;-62
2022/03/05 09:18:39;;;;;;;59.60;24.17;;;;;;;-145.18;100.00;46623.28;4949650;28;20417;-61
2022/03/05 09:21:04;;;;;;;59.17;21.30;;;;;;;-145.18;100.00;46666.25;4932367;28;20050;-61
2022/03/05 09:23:30;;;;;;;68.37;25.67;;;;;;;-145.18;100.00;46638.91;4948642;28;20055;-61
2022/03/05 09:25:55;;;;;;;64.37;24.70;;;;;;;-145.18;100.00;46644.78;4949438;28;20401;-61
2022/03/05 09:28:20;;;;;;;66.63;24.03;;;;;;;-145.18;100.00;46683.84;4948849;28;20420;-61
2022/03/05 09:30:46;;;;;;;60.40;23.53;;;;;;;-145.18;100.00;46666.25;4949481;28;20133;-62
2022/03/05 09:33:11;;;;;;;57.63;22.53;;;;;;;-145.18;100.00;46681.88;4949103;28;20047;-62
2022/03/05 09:35:38;;;;;;;61.53;24.80;;;;;;;-145.18;100.00;46670.16;4949275;28;20130;-61
2022/03/05 09:38:04;;;;;;;60.22;23.58;;;;;;;-145.18;100.00;46670.16;4949252;28;20035;-62
2022/03/05 09:40:29;;;;;;;61.43;24.27;;;;;;;-145.18;100.00;46687.75;4948826;28;20071;-62
2022/03/05 09:42:55;;;;;;;60.30;24.30;;;;;;;-145.18;100.00;46734.63;4949298;28;20038;-61
2022/03/05 09:45:21;;;;;;;67.43;25.60;;;;;;;-145.18;100.00;46740.47;4948928;28;20043;-62
2022/03/05 09:47:47;;;;;;;56.33;23.67;;;;;;;-145.18;100.00;46756.09;4949903;28;20069;-61
2022/03/05 09:50:13;;;;;;;57.30;23.53;;;;;;;-145.18;100.00;46742.44;4948505;28;20071;-62
2022/03/05 09:52:39;;;;;;;66.88;23.35;;;;;;;-145.18;100.00;46746.34;4948941;28;20040;-62
2022/03/05 09:55:06;;;;;;;60.10;24.10;;;;;;;-145.18;100.00;46738.53;4948769;28;20031;-62
2022/03/05 09:57:31;;;;;;;59.83;21.92;;;;;;;-145.18;100.00;46736.56;4948701;28;20140;-62
2022/03/05 09:59:56;;;;;;;61.63;22.83;;;;;;;-145.18;100.00;46736.56;4948461;28;20531;-62
2022/03/05 10:02:22;;;;;;;59.70;22.37;;;;;;;-145.18;100.00;46760.00;4932168;28;20086;-61
2022/03/05 10:04:48;;;;;;;57.23;23.90;;;;;;;-145.18;100.00;46769.78;4952828;28;20043;-62
2022/03/05 10:07:16;;;;;;;61.07;24.90;;;;;;;-145.18;100.00;46765.88;4935424;28;20281;-62
2022/03/05 10:09:43;;;;;;;57.17;24.73;;;;;;;-145.18;100.00;46767.84;4952095;28;20044;-62
2022/03/05 10:12:32;;;;;;;53.43;23.20;;;;;;;-145.18;100.00;46791.28;4952259;28;20043;-62
2022/03/05 10:15:06;;;;;;;63.92;25.90;;;;;;;-145.18;100.00;46902.63;4952166;28;20304;-62
2022/03/05 10:17:56;;;;;;;53.65;23.85;;;;;;;-145.18;100.00;46853.78;4952293;28;20482;-62
2022/03/05 10:20:30;;;;;;;55.03;23.73;;;;;;;-145.18;100.00;46793.22;4951879;28;20114;-62
2022/03/05 10:22:58;;;;;;;57.83;24.83;;;;;;;-145.18;100.00;47264.03;4952487;28;20043;-62
2022/03/05 10:25:31;;;;;;;60.00;24.80;;;;;;;-145.18;100.00;47453.53;4951647;28;20269;-62
2022/03/05 10:28:02;;;;;;;60.73;24.63;;;;;;;-145.18;100.00;47094.06;4952074;28;20277;-62
2022/03/05 10:30:29;;;;;;;59.23;24.90;;;;;;;-145.18;100.00;47256.22;4951630;28;20788;-62
2022/03/05 10:32:55;;;;;;;64.37;23.67;;;;;;;-145.18;100.00;47473.06;4952086;28;20301;-62
2022/03/05 10:35:20;;;;;;;55.50;24.87;;;;;;;-145.18;100.00;47351.94;4951238;28;20301;-62
2022/03/05 10:37:51;;;;;;;56.67;24.87;;;;;;;-145.18;100.00;47480.88;4951769;28;20843;-62
2022/03/05 10:40:24;;;;;;;52.47;24.03;;;;;;;-145.18;100.00;47451.56;4951424;28;20078;-62
2022/03/05 10:42:50;;;;;;;57.17;26.17;;;;;;;-145.18;100.00;47496.50;4952111;28;20289;-62
2022/03/05 10:45:18;;;;;;;57.73;26.23;;;;;;;-145.18;100.00;47359.75;4918495;28;20270;-62
2022/03/05 10:47:49;;;;;;;61.40;26.37;;;;;;;-145.18;100.00;47455.47;4934913;28;20043;-62
2022/03/05 10:50:14;;;;;;;64.93;26.83;;;;;;;-145.18;100.00;47471.13;4951278;28;20715;-62
2022/03/05 10:52:50;;;;;;;61.57;24.30;;;;;;;-145.18;100.00;47463.31;4951850;28;20341;-62
2022/03/05 10:55:18;;;;;;;58.33;24.98;;;;;;;-145.18;100.00;47135.09;4951239;28;20114;-62